sensor_id;sensor_type;location;lat;lon;timestamp;temperature;humidity
15452;DHT22;7827;53.594;9.938;2023-07-13T00:01:14;16.80;99.90
15452;DHT22;7827;53.594;9.938;2023-07-13T00:03:43;16.80;99.90
15452;DHT22;7827;53.594;9.938;2023-07-13T00:06:11;16.80;99.90
15452;DHT22;7827;53.594;9.938;2023-07-13T00:08:40;16.70;99.90
15452;DHT22;7827;53.594;9.938;2023-07-13T00:11:09;16.70;99.90
15452;DHT22;7827;53.594;9.938;2023-07-13T00:13:38;16.60;99.90
15452;DHT22;7827;53.594;9.938;2023-07-13T00:16:08;16.60;99.90
15452;DHT22;7827;53.594;9.938;2023-07-13T00:18:37;16.60;99.90
15452;DHT22;7827;53.594;9.938;2023-07-13T00:21:06;16.60;99.90
15452;DHT22;7827;53.594;9.938;2023-07-13T00:23:37;16.60;99.90
15452;DHT22;7827;53.594;9.938;2023-07-13T00:26:08;16.50;99.90
15452;DHT22;7827;53.594;9.938;2023-07-13T00:28:40;16.40;99.90
15452;DHT22;7827;53.594;9.938;2023-07-13T00:31:12;16.40;99.90
15452;DHT22;7827;53.594;9.938;2023-07-13T00:33:42;16.40;99.90
15452;DHT22;7827;53.594;9.938;2023-07-13T00:36:11;16.40;99.90
15452;DHT22;7827;53.594;9.938;2023-07-13T00:38:40;16.40;99.90
15452;DHT22;7827;53.594;9.938;2023-07-13T00:41:09;16.40;99.90
15452;DHT22;7827;53.594;9.938;2023-07-13T00:43:38;16.40;99.90
15452;DHT22;7827;53.594;9.938;2023-07-13T00:46:25;16.40;99.90
15452;DHT22;7827;53.594;9.938;2023-07-13T00:48:57;16.40;99.90
15452;DHT22;7827;53.594;9.938;2023-07-13T00:51:33;16.40;99.90
15452;DHT22;7827;53.594;9.938;2023-07-13T00:54:06;16.40;99.90
15452;DHT22;7827;53.594;9.938;2023-07-13T00:56:47;16.30;99.90
15452;DHT22;7827;53.594;9.938;2023-07-13T00:59:19;16.40;99.90
15452;DHT22;7827;53.594;9.938;2023-07-13T01:01:50;16.40;99.90
15452;DHT22;7827;53.594;9.938;2023-07-13T01:04:19;16.40;99.90
15452;DHT22;7827;53.594;9.938;2023-07-13T01:06:47;16.40;99.90
15452;DHT22;7827;53.594;9.938;2023-07-13T01:09:16;16.40;99.90
15452;DHT22;7827;53.594;9.938;2023-07-13T01:11:45;16.40;99.90
15452;DHT22;7827;53.594;9.938;2023-07-13T01:14:13;16.40;99.90
15452;DHT22;7827;53.594;9.938;2023-07-13T01:16:45;16.50;99.90
15452;DHT22;7827;53.594;9.938;2023-07-13T01:19:31;16.50;99.90
15452;DHT22;7827;53.594;9.938;2023-07-13T01:22:07;16.50;99.90
15452;DHT22;7827;53.594;9.938;2023-07-13T01:24:40;16.40;99.90
15452;DHT22;7827;53.594;9.938;2023-07-13T01:27:12;16.40;99.90
15452;DHT22;7827;53.594;9.938;2023-07-13T01:29:44;16.50;99.90
15452;DHT22;7827;53.594;9.938;2023-07-13T01:32:17;16.50;99.90
15452;DHT22;7827;53.594;9.938;2023-07-13T01:34:50;16.40;99.90
15452;DHT22;7827;53.594;9.938;2023-07-13T01:37:24;16.40;99.90
15452;DHT22;7827;53.594;9.938;2023-07-13T01:39:54;16.50;99.90
15452;DHT22;7827;53.594;9.938;2023-07-13T01:42:22;16.50;99.90
15452;DHT22;7827;53.594;9.938;2023-07-13T01:44:51;16.50;99.90
15452;DHT22;7827;53.594;9.938;2023-07-13T01:47:19;16.40;99.90
15452;DHT22;7827;53.594;9.938;2023-07-13T01:49:47;16.50;99.90
15452;DHT22;7827;53.594;9.938;2023-07-13T01:52:18;16.40;99.90
15452;DHT22;7827;53.594;9.938;2023-07-13T01:54:52;16.40;99.90
15452;DHT22;7827;53.594;9.938;2023-07-13T01:57:20;16.50;99.90
15452;DHT22;7827;53.594;9.938;2023-07-13T01:59:48;16.40;99.90
15452;DHT22;7827;53.594;9.938;2023-07-13T02:02:17;16.50;99.90
15452;DHT22;7827;53.594;9.938;2023-07-13T02:04:45;16.50;99.90
15452;DHT22;7827;53.594;9.938;2023-07-13T02:07:14;16.40;99.90
15452;DHT22;7827;53.594;9.938;2023-07-13T02:09:46;16.40;99.90
15452;DHT22;7827;53.594;9.938;2023-07-13T02:12:15;16.40;99.90
15452;DHT22;7827;53.594;9.938;2023-07-13T02:14:44;16.40;99.90
15452;DHT22;7827;53.594;9.938;2023-07-13T02:17:12;16.40;99.90
15452;DHT22;7827;53.594;9.938;2023-07-13T02:19:41;16.40;99.90
15452;DHT22;7827;53.594;9.938;2023-07-13T02:22:09;16.40;99.90
15452;DHT22;7827;53.594;9.938;2023-07-13T02:24:38;16.40;99.90
15452;DHT22;7827;53.594;9.938;2023-07-13T02:27:09;16.40;99.90
15452;DHT22;7827;53.594;9.938;2023-07-13T02:29:39;16.40;99.90
15452;DHT22;7827;53.594;9.938;2023-07-13T02:32:07;16.40;99.90
15452;DHT22;7827;53.594;9.938;2023-07-13T02:34:36;16.30;99.90
15452;DHT22;7827;53.594;9.938;2023-07-13T02:37:05;16.30;99.90
15452;DHT22;7827;53.594;9.938;2023-07-13T02:39:35;16.30;99.90
15452;DHT22;7827;53.594;9.938;2023-07-13T02:42:04;16.20;99.90
15452;DHT22;7827;53.594;9.938;2023-07-13T02:44:33;16.20;99.90
15452;DHT22;7827;53.594;9.938;2023-07-13T02:47:03;16.20;99.90
15452;DHT22;7827;53.594;9.938;2023-07-13T02:49:31;16.20;99.90
15452;DHT22;7827;53.594;9.938;2023-07-13T02:52:00;16.20;99.90
15452;DHT22;7827;53.594;9.938;2023-07-13T02:54:29;16.10;99.90
15452;DHT22;7827;53.594;9.938;2023-07-13T02:56:58;16.10;99.90
15452;DHT22;7827;53.594;9.938;2023-07-13T02:59:26;16.10;99.90
15452;DHT22;7827;53.594;9.938;2023-07-13T03:01:54;16.10;99.90
15452;DHT22;7827;53.594;9.938;2023-07-13T03:04:24;16.10;99.90
15452;DHT22;7827;53.594;9.938;2023-07-13T03:06:53;16.10;99.90
15452;DHT22;7827;53.594;9.938;2023-07-13T03:09:30;16.10;99.90
15452;DHT22;7827;53.594;9.938;2023-07-13T03:12:00;16.10;99.90
15452;DHT22;7827;53.594;9.938;2023-07-13T03:14:31;16.10;99.90
15452;DHT22;7827;53.594;9.938;2023-07-13T03:17:01;16.10;99.90
15452;DHT22;7827;53.594;9.938;2023-07-13T03:19:34;16.10;99.90
15452;DHT22;7827;53.594;9.938;2023-07-13T03:22:04;16.00;99.90
15452;DHT22;7827;53.594;9.938;2023-07-13T03:24:34;16.00;99.90
15452;DHT22;7827;53.594;9.938;2023-07-13T03:27:06;16.00;99.90
15452;DHT22;7827;53.594;9.938;2023-07-13T03:29:38;16.00;99.90
15452;DHT22;7827;53.594;9.938;2023-07-13T03:32:07;16.00;99.90
15452;DHT22;7827;53.594;9.938;2023-07-13T03:34:37;16.00;99.90
15452;DHT22;7827;53.594;9.938;2023-07-13T03:37:06;16.00;99.90
15452;DHT22;7827;53.594;9.938;2023-07-13T03:39:36;16.00;99.90
15452;DHT22;7827;53.594;9.938;2023-07-13T03:42:05;16.00;99.90
15452;DHT22;7827;53.594;9.938;2023-07-13T03:44:35;16.00;99.90
15452;DHT22;7827;53.594;9.938;2023-07-13T03:47:04;16.00;99.90
15452;DHT22;7827;53.594;9.938;2023-07-13T03:49:37;16.00;99.90
15452;DHT22;7827;53.594;9.938;2023-07-13T03:52:06;16.10;99.90
15452;DHT22;7827;53.594;9.938;2023-07-13T03:54:34;16.00;99.90
15452;DHT22;7827;53.594;9.938;2023-07-13T03:57:03;15.90;99.90
15452;DHT22;7827;53.594;9.938;2023-07-13T03:59:34;15.90;99.90
15452;DHT22;7827;53.594;9.938;2023-07-13T04:02:03;16.00;99.90
15452;DHT22;7827;53.594;9.938;2023-07-13T04:04:33;16.00;99.90
15452;DHT22;7827;53.594;9.938;2023-07-13T04:07:04;16.00;99.90
15452;DHT22;7827;53.594;9.938;2023-07-13T04:09:32;16.00;99.90
15452;DHT22;7827;53.594;9.938;2023-07-13T04:12:01;16.10;99.90
15452;DHT22;7827;53.594;9.938;2023-07-13T04:14:29;16.20;99.90
15452;DHT22;7827;53.594;9.938;2023-07-13T04:16:58;16.20;99.90
15452;DHT22;7827;53.594;9.938;2023-07-13T04:19:26;16.20;99.90
15452;DHT22;7827;53.594;9.938;2023-07-13T04:21:55;16.20;99.90
15452;DHT22;7827;53.594;9.938;2023-07-13T04:24:24;16.30;99.90
15452;DHT22;7827;53.594;9.938;2023-07-13T04:26:52;16.40;99.90
15452;DHT22;7827;53.594;9.938;2023-07-13T04:29:21;16.60;99.90
15452;DHT22;7827;53.594;9.938;2023-07-13T04:31:49;17.00;99.90
15452;DHT22;7827;53.594;9.938;2023-07-13T04:34:18;17.30;99.90
15452;DHT22;7827;53.594;9.938;2023-07-13T04:36:46;17.60;99.90
15452;DHT22;7827;53.594;9.938;2023-07-13T04:39:14;17.90;92.80
15452;DHT22;7827;53.594;9.938;2023-07-13T04:41:44;18.10;1.00
15452;DHT22;7827;53.594;9.938;2023-07-13T04:44:12;18.20;1.00
15452;DHT22;7827;53.594;9.938;2023-07-13T04:46:41;18.40;1.00
15452;DHT22;7827;53.594;9.938;2023-07-13T04:49:09;18.40;1.00
15452;DHT22;7827;53.594;9.938;2023-07-13T04:51:38;18.50;1.00
15452;DHT22;7827;53.594;9.938;2023-07-13T04:54:06;18.50;1.00
15452;DHT22;7827;53.594;9.938;2023-07-13T04:56:34;18.40;1.00
15452;DHT22;7827;53.594;9.938;2023-07-13T04:59:04;18.50;1.00
15452;DHT22;7827;53.594;9.938;2023-07-13T05:01:32;18.60;1.00
15452;DHT22;7827;53.594;9.938;2023-07-13T05:04:01;18.60;1.00
15452;DHT22;7827;53.594;9.938;2023-07-13T05:06:29;18.30;1.00
15452;DHT22;7827;53.594;9.938;2023-07-13T05:08:58;18.30;1.00
15452;DHT22;7827;53.594;9.938;2023-07-13T05:11:26;18.30;1.00
15452;DHT22;7827;53.594;9.938;2023-07-13T05:13:55;18.30;1.00
15452;DHT22;7827;53.594;9.938;2023-07-13T05:16:24;18.40;1.00
15452;DHT22;7827;53.594;9.938;2023-07-13T05:18:53;18.50;1.00
15452;DHT22;7827;53.594;9.938;2023-07-13T05:21:22;18.50;1.00
15452;DHT22;7827;53.594;9.938;2023-07-13T05:23:50;18.50;1.00
15452;DHT22;7827;53.594;9.938;2023-07-13T05:26:18;18.40;1.00
15452;DHT22;7827;53.594;9.938;2023-07-13T05:28:47;18.50;1.00
15452;DHT22;7827;53.594;9.938;2023-07-13T05:31:15;18.60;1.00
15452;DHT22;7827;53.594;9.938;2023-07-13T05:33:45;18.40;1.00
15452;DHT22;7827;53.594;9.938;2023-07-13T05:36:14;18.40;1.00
15452;DHT22;7827;53.594;9.938;2023-07-13T05:38:42;18.20;1.00
15452;DHT22;7827;53.594;9.938;2023-07-13T05:41:10;18.00;1.00
15452;DHT22;7827;53.594;9.938;2023-07-13T05:43:39;17.90;1.00
15452;DHT22;7827;53.594;9.938;2023-07-13T05:46:07;17.70;3.30
15452;DHT22;7827;53.594;9.938;2023-07-13T05:48:36;17.60;36.10
15452;DHT22;7827;53.594;9.938;2023-07-13T05:51:05;17.50;56.20
15452;DHT22;7827;53.594;9.938;2023-07-13T05:53:34;17.60;82.90
15452;DHT22;7827;53.594;9.938;2023-07-13T05:56:03;17.60;18.20
15452;DHT22;7827;53.594;9.938;2023-07-13T05:58:32;17.60;78.60
15452;DHT22;7827;53.594;9.938;2023-07-13T06:01:02;17.60;49.70
15452;DHT22;7827;53.594;9.938;2023-07-13T06:03:33;17.50;90.50
15452;DHT22;7827;53.594;9.938;2023-07-13T06:06:02;17.60;57.30
15452;DHT22;7827;53.594;9.938;2023-07-13T06:08:32;17.40;62.40
15452;DHT22;7827;53.594;9.938;2023-07-13T06:11:05;17.50;82.70
15452;DHT22;7827;53.594;9.938;2023-07-13T06:13:35;17.50;88.30
15452;DHT22;7827;53.594;9.938;2023-07-13T06:16:04;17.50;71.40
15452;DHT22;7827;53.594;9.938;2023-07-13T06:18:33;17.50;72.60
15452;DHT22;7827;53.594;9.938;2023-07-13T06:21:06;17.40;89.80
15452;DHT22;7827;53.594;9.938;2023-07-13T06:23:38;17.40;94.00
15452;DHT22;7827;53.594;9.938;2023-07-13T06:26:07;17.30;99.90
15452;DHT22;7827;53.594;9.938;2023-07-13T06:28:37;17.50;99.80
15452;DHT22;7827;53.594;9.938;2023-07-13T06:31:07;17.50;99.90
15452;DHT22;7827;53.594;9.938;2023-07-13T06:33:38;17.60;98.60
15452;DHT22;7827;53.594;9.938;2023-07-13T06:36:07;17.60;99.90
15452;DHT22;7827;53.594;9.938;2023-07-13T06:38:38;17.60;78.80
15452;DHT22;7827;53.594;9.938;2023-07-13T06:41:07;17.70;66.10
15452;DHT22;7827;53.594;9.938;2023-07-13T06:43:36;17.70;48.10
15452;DHT22;7827;53.594;9.938;2023-07-13T06:46:05;17.70;86.50
15452;DHT22;7827;53.594;9.938;2023-07-13T06:48:34;17.80;95.90
15452;DHT22;7827;53.594;9.938;2023-07-13T06:51:03;17.90;90.60
15452;DHT22;7827;53.594;9.938;2023-07-13T06:53:31;17.90;39.30
15452;DHT22;7827;53.594;9.938;2023-07-13T06:56:01;17.90;47.60
15452;DHT22;7827;53.594;9.938;2023-07-13T06:58:29;17.90;5.20
15452;DHT22;7827;53.594;9.938;2023-07-13T07:00:58;17.80;17.00
15452;DHT22;7827;53.594;9.938;2023-07-13T07:03:26;17.90;34.80
15452;DHT22;7827;53.594;9.938;2023-07-13T07:06:00;18.00;50.20
15452;DHT22;7827;53.594;9.938;2023-07-13T07:08:29;18.10;13.20
15452;DHT22;7827;53.594;9.938;2023-07-13T07:10:57;18.20;1.00
15452;DHT22;7827;53.594;9.938;2023-07-13T07:13:27;18.40;1.00
15452;DHT22;7827;53.594;9.938;2023-07-13T07:15:57;18.50;1.00
15452;DHT22;7827;53.594;9.938;2023-07-13T07:18:27;18.70;1.00
15452;DHT22;7827;53.594;9.938;2023-07-13T07:20:55;18.80;1.00
15452;DHT22;7827;53.594;9.938;2023-07-13T07:23:23;18.80;1.00
15452;DHT22;7827;53.594;9.938;2023-07-13T07:25:51;18.80;1.00
15452;DHT22;7827;53.594;9.938;2023-07-13T07:28:20;18.80;1.00
15452;DHT22;7827;53.594;9.938;2023-07-13T07:30:55;19.00;1.00
15452;DHT22;7827;53.594;9.938;2023-07-13T07:33:27;19.10;1.00
15452;DHT22;7827;53.594;9.938;2023-07-13T07:35:55;19.20;1.00
15452;DHT22;7827;53.594;9.938;2023-07-13T07:38:27;19.20;1.00
15452;DHT22;7827;53.594;9.938;2023-07-13T07:40:55;19.30;1.00
15452;DHT22;7827;53.594;9.938;2023-07-13T07:43:27;19.50;1.00
15452;DHT22;7827;53.594;9.938;2023-07-13T07:45:56;19.60;1.00
15452;DHT22;7827;53.594;9.938;2023-07-13T07:48:28;19.70;1.00
15452;DHT22;7827;53.594;9.938;2023-07-13T07:50:57;19.80;99.90
15452;DHT22;7827;53.594;9.938;2023-07-13T07:53:26;19.90;99.90
15452;DHT22;7827;53.594;9.938;2023-07-13T07:55:54;19.80;99.90
15452;DHT22;7827;53.594;9.938;2023-07-13T07:58:25;19.80;99.90
15452;DHT22;7827;53.594;9.938;2023-07-13T08:01:03;19.80;1.00
15452;DHT22;7827;53.594;9.938;2023-07-13T08:03:35;20.10;99.90
15452;DHT22;7827;53.594;9.938;2023-07-13T08:06:06;20.20;99.90
15452;DHT22;7827;53.594;9.938;2023-07-13T08:08:38;20.40;99.90
15452;DHT22;7827;53.594;9.938;2023-07-13T08:11:07;20.40;1.00
15452;DHT22;7827;53.594;9.938;2023-07-13T08:13:40;20.50;45.80
15452;DHT22;7827;53.594;9.938;2023-07-13T08:16:10;20.60;99.90
15452;DHT22;7827;53.594;9.938;2023-07-13T08:18:39;20.60;1.00
15452;DHT22;7827;53.594;9.938;2023-07-13T08:21:08;20.50;1.00
15452;DHT22;7827;53.594;9.938;2023-07-13T08:23:37;20.50;99.90
15452;DHT22;7827;53.594;9.938;2023-07-13T08:26:06;20.70;99.90
15452;DHT22;7827;53.594;9.938;2023-07-13T08:28:34;20.70;99.90
15452;DHT22;7827;53.594;9.938;2023-07-13T08:31:04;20.70;99.90
15452;DHT22;7827;53.594;9.938;2023-07-13T08:33:35;20.50;1.00
15452;DHT22;7827;53.594;9.938;2023-07-13T08:36:05;20.50;99.90
15452;DHT22;7827;53.594;9.938;2023-07-13T08:38:34;20.30;99.90
15452;DHT22;7827;53.594;9.938;2023-07-13T08:41:10;20.20;1.00
15452;DHT22;7827;53.594;9.938;2023-07-13T08:43:41;20.40;99.90
15452;DHT22;7827;53.594;9.938;2023-07-13T08:46:16;20.40;99.90
15452;DHT22;7827;53.594;9.938;2023-07-13T08:48:51;20.60;99.90
15452;DHT22;7827;53.594;9.938;2023-07-13T08:51:29;20.40;99.90
15452;DHT22;7827;53.594;9.938;2023-07-13T08:54:07;20.20;1.00
15452;DHT22;7827;53.594;9.938;2023-07-13T08:56:45;20.20;1.00
15452;DHT22;7827;53.594;9.938;2023-07-13T08:59:15;20.10;99.90
15452;DHT22;7827;53.594;9.938;2023-07-13T09:02:06;20.20;83.90
15452;DHT22;7827;53.594;9.938;2023-07-13T09:04:52;20.30;99.40
15452;DHT22;7827;53.594;9.938;2023-07-13T09:07:32;20.50;99.90
15452;DHT22;7827;53.594;9.938;2023-07-13T09:10:14;21.00;85.20
15452;DHT22;7827;53.594;9.938;2023-07-13T09:12:52;21.20;99.90
15452;DHT22;7827;53.594;9.938;2023-07-13T09:15:34;21.10;99.90
15452;DHT22;7827;53.594;9.938;2023-07-13T09:18:10;21.10;99.90
15452;DHT22;7827;53.594;9.938;2023-07-13T09:20:49;21.10;1.00
15452;DHT22;7827;53.594;9.938;2023-07-13T09:23:23;21.10;1.00
15452;DHT22;7827;53.594;9.938;2023-07-13T09:25:54;21.00;1.00
15452;DHT22;7827;53.594;9.938;2023-07-13T09:28:34;20.80;99.90
15452;DHT22;7827;53.594;9.938;2023-07-13T09:31:09;21.00;1.00
15452;DHT22;7827;53.594;9.938;2023-07-13T09:33:42;20.90;99.90
15452;DHT22;7827;53.594;9.938;2023-07-13T09:36:20;21.10;99.90
15452;DHT22;7827;53.594;9.938;2023-07-13T09:38:58;21.30;1.00
15452;DHT22;7827;53.594;9.938;2023-07-13T09:41:37;21.40;1.00
15452;DHT22;7827;53.594;9.938;2023-07-13T09:44:11;21.50;1.00
15452;DHT22;7827;53.594;9.938;2023-07-13T09:46:45;21.60;99.90
15452;DHT22;7827;53.594;9.938;2023-07-13T09:49:14;21.70;89.60
15452;DHT22;7827;53.594;9.938;2023-07-13T09:51:44;21.90;1.00
15452;DHT22;7827;53.594;9.938;2023-07-13T09:54:20;21.90;99.90
15452;DHT22;7827;53.594;9.938;2023-07-13T09:56:55;21.90;99.90
15452;DHT22;7827;53.594;9.938;2023-07-13T09:59:32;22.10;91.70
15452;DHT22;7827;53.594;9.938;2023-07-13T10:02:04;22.00;1.00
15452;DHT22;7827;53.594;9.938;2023-07-13T10:04:56;21.90;18.60
15452;DHT22;7827;53.594;9.938;2023-07-13T10:07:27;21.80;1.00
15452;DHT22;7827;53.594;9.938;2023-07-13T10:09:57;21.80;99.90
15452;DHT22;7827;53.594;9.938;2023-07-13T10:12:30;22.00;99.90
15452;DHT22;7827;53.594;9.938;2023-07-13T10:15:13;22.00;32.30
15452;DHT22;7827;53.594;9.938;2023-07-13T10:17:51;22.00;1.00
15452;DHT22;7827;53.594;9.938;2023-07-13T10:20:21;22.00;99.90
15452;DHT22;7827;53.594;9.938;2023-07-13T10:22:54;22.10;37.80
15452;DHT22;7827;53.594;9.938;2023-07-13T10:25:31;22.10;99.90
15452;DHT22;7827;53.594;9.938;2023-07-13T10:28:06;22.10;1.00
15452;DHT22;7827;53.594;9.938;2023-07-13T10:30:43;22.30;99.90
15452;DHT22;7827;53.594;9.938;2023-07-13T10:33:14;22.40;83.90
15452;DHT22;7827;53.594;9.938;2023-07-13T10:35:43;22.50;99.90
15452;DHT22;7827;53.594;9.938;2023-07-13T10:38:19;22.60;99.90
15452;DHT22;7827;53.594;9.938;2023-07-13T10:40:57;22.80;99.90
15452;DHT22;7827;53.594;9.938;2023-07-13T10:43:33;22.90;1.00
15452;DHT22;7827;53.594;9.938;2023-07-13T10:46:06;23.00;99.90
15452;DHT22;7827;53.594;9.938;2023-07-13T10:48:37;23.10;99.90
15452;DHT22;7827;53.594;9.938;2023-07-13T10:51:10;23.00;99.90
15452;DHT22;7827;53.594;9.938;2023-07-13T10:53:43;23.00;99.90
15452;DHT22;7827;53.594;9.938;2023-07-13T10:56:22;23.00;54.00
15452;DHT22;7827;53.594;9.938;2023-07-13T10:59:11;23.20;99.90
15452;DHT22;7827;53.594;9.938;2023-07-13T11:01:53;23.20;99.90
15452;DHT22;7827;53.594;9.938;2023-07-13T11:04:26;23.20;99.90
15452;DHT22;7827;53.594;9.938;2023-07-13T11:06:59;23.10;99.90
15452;DHT22;7827;53.594;9.938;2023-07-13T11:09:41;23.10;99.90
15452;DHT22;7827;53.594;9.938;2023-07-13T11:15:32;23.20;99.90
15452;DHT22;7827;53.594;9.938;2023-07-13T11:18:23;23.00;1.00
15452;DHT22;7827;53.594;9.938;2023-07-13T11:21:12;22.80;20.10
15452;DHT22;7827;53.594;9.938;2023-07-13T11:24:02;22.80;99.90
15452;DHT22;7827;53.594;9.938;2023-07-13T11:26:51;22.80;99.90
15452;DHT22;7827;53.594;9.938;2023-07-13T11:29:27;22.80;99.90
15452;DHT22;7827;53.594;9.938;2023-07-13T11:32:22;22.70;99.90
15452;DHT22;7827;53.594;9.938;2023-07-13T11:34:54;22.70;99.90
15452;DHT22;7827;53.594;9.938;2023-07-13T11:37:23;22.80;99.90
15452;DHT22;7827;53.594;9.938;2023-07-13T11:39:52;22.60;99.90
15452;DHT22;7827;53.594;9.938;2023-07-13T11:42:23;22.60;99.90
15452;DHT22;7827;53.594;9.938;2023-07-13T11:44:52;22.60;99.90
15452;DHT22;7827;53.594;9.938;2023-07-13T11:47:40;22.60;99.90
15452;DHT22;7827;53.594;9.938;2023-07-13T11:50:18;22.60;99.90
15452;DHT22;7827;53.594;9.938;2023-07-13T11:52:49;22.50;99.90
15452;DHT22;7827;53.594;9.938;2023-07-13T11:55:22;22.40;99.90
15452;DHT22;7827;53.594;9.938;2023-07-13T11:57:57;22.20;99.90
15452;DHT22;7827;53.594;9.938;2023-07-13T12:00:29;22.10;99.90
15452;DHT22;7827;53.594;9.938;2023-07-13T12:03:02;22.10;1.00
15452;DHT22;7827;53.594;9.938;2023-07-13T12:05:32;22.20;1.00
15452;DHT22;7827;53.594;9.938;2023-07-13T12:08:08;22.30;1.00
15452;DHT22;7827;53.594;9.938;2023-07-13T12:10:57;22.20;99.90
15452;DHT22;7827;53.594;9.938;2023-07-13T12:13:28;22.00;1.00
15452;DHT22;7827;53.594;9.938;2023-07-13T12:15:57;21.80;1.00
15452;DHT22;7827;53.594;9.938;2023-07-13T12:18:30;21.30;99.90
15452;DHT22;7827;53.594;9.938;2023-07-13T12:21:01;20.20;99.90
15452;DHT22;7827;53.594;9.938;2023-07-13T12:23:32;19.30;1.00
15452;DHT22;7827;53.594;9.938;2023-07-13T12:26:04;18.90;1.00
15452;DHT22;7827;53.594;9.938;2023-07-13T12:28:40;18.60;1.00
15452;DHT22;7827;53.594;9.938;2023-07-13T12:31:35;18.30;1.00
15452;DHT22;7827;53.594;9.938;2023-07-13T12:34:08;18.00;1.00
15452;DHT22;7827;53.594;9.938;2023-07-13T12:36:46;17.80;81.60
15452;DHT22;7827;53.594;9.938;2023-07-13T12:39:20;17.80;99.90
15452;DHT22;7827;53.594;9.938;2023-07-13T12:41:52;17.90;99.90
15452;DHT22;7827;53.594;9.938;2023-07-13T12:44:27;18.10;99.90
15452;DHT22;7827;53.594;9.938;2023-07-13T12:46:59;18.40;99.90
15452;DHT22;7827;53.594;9.938;2023-07-13T12:49:33;19.00;99.90
15452;DHT22;7827;53.594;9.938;2023-07-13T12:52:04;19.20;99.90
15452;DHT22;7827;53.594;9.938;2023-07-13T12:54:52;19.50;99.90
15452;DHT22;7827;53.594;9.938;2023-07-13T12:57:32;19.50;14.90
15452;DHT22;7827;53.594;9.938;2023-07-13T13:00:21;19.40;1.00
15452;DHT22;7827;53.594;9.938;2023-07-13T13:02:53;19.30;1.00
15452;DHT22;7827;53.594;9.938;2023-07-13T13:05:46;19.20;1.00
15452;DHT22;7827;53.594;9.938;2023-07-13T13:08:15;19.20;1.00
15452;DHT22;7827;53.594;9.938;2023-07-13T13:10:44;19.10;1.00
15452;DHT22;7827;53.594;9.938;2023-07-13T13:13:12;19.00;1.00
15452;DHT22;7827;53.594;9.938;2023-07-13T13:15:42;19.00;21.00
15452;DHT22;7827;53.594;9.938;2023-07-13T13:18:16;19.00;41.30
15452;DHT22;7827;53.594;9.938;2023-07-13T13:20:46;19.10;47.50
15452;DHT22;7827;53.594;9.938;2023-07-13T13:23:14;19.30;1.00
15452;DHT22;7827;53.594;9.938;2023-07-13T13:25:46;19.50;1.00
15452;DHT22;7827;53.594;9.938;2023-07-13T13:28:18;19.60;1.00
15452;DHT22;7827;53.594;9.938;2023-07-13T13:30:49;19.70;1.00
15452;DHT22;7827;53.594;9.938;2023-07-13T13:33:20;19.80;1.00
15452;DHT22;7827;53.594;9.938;2023-07-13T13:35:50;19.80;1.00
15452;DHT22;7827;53.594;9.938;2023-07-13T13:38:23;19.90;1.00
15452;DHT22;7827;53.594;9.938;2023-07-13T13:40:54;20.10;1.00
15452;DHT22;7827;53.594;9.938;2023-07-13T13:43:24;20.30;1.00
15452;DHT22;7827;53.594;9.938;2023-07-13T13:45:57;20.30;1.00
15452;DHT22;7827;53.594;9.938;2023-07-13T13:48:30;20.30;99.90
15452;DHT22;7827;53.594;9.938;2023-07-13T13:51:01;20.30;1.00
15452;DHT22;7827;53.594;9.938;2023-07-13T13:53:40;20.10;99.90
15452;DHT22;7827;53.594;9.938;2023-07-13T13:56:09;19.90;69.80
15452;DHT22;7827;53.594;9.938;2023-07-13T13:58:38;19.90;1.00
15452;DHT22;7827;53.594;9.938;2023-07-13T14:01:13;20.00;1.00
15452;DHT22;7827;53.594;9.938;2023-07-13T14:03:45;19.90;6.00
15452;DHT22;7827;53.594;9.938;2023-07-13T14:06:16;19.90;99.90
15452;DHT22;7827;53.594;9.938;2023-07-13T14:08:44;19.80;1.00
15452;DHT22;7827;53.594;9.938;2023-07-13T14:11:16;20.00;99.90
15452;DHT22;7827;53.594;9.938;2023-07-13T14:13:49;20.10;1.00
15452;DHT22;7827;53.594;9.938;2023-07-13T14:16:32;20.40;1.00
15452;DHT22;7827;53.594;9.938;2023-07-13T14:19:01;20.40;1.00
15452;DHT22;7827;53.594;9.938;2023-07-13T14:21:29;20.40;1.00
15452;DHT22;7827;53.594;9.938;2023-07-13T14:23:58;20.30;60.50
15452;DHT22;7827;53.594;9.938;2023-07-13T14:26:27;20.10;1.00
15452;DHT22;7827;53.594;9.938;2023-07-13T14:28:56;20.00;1.00
15452;DHT22;7827;53.594;9.938;2023-07-13T14:31:27;20.00;1.00
15452;DHT22;7827;53.594;9.938;2023-07-13T14:33:57;20.10;99.90
15452;DHT22;7827;53.594;9.938;2023-07-13T14:36:29;20.30;1.00
15452;DHT22;7827;53.594;9.938;2023-07-13T14:39:00;20.30;1.00
15452;DHT22;7827;53.594;9.938;2023-07-13T14:41:33;20.30;1.00
15452;DHT22;7827;53.594;9.938;2023-07-13T14:44:01;20.30;1.00
15452;DHT22;7827;53.594;9.938;2023-07-13T14:46:33;20.30;1.00
15452;DHT22;7827;53.594;9.938;2023-07-13T14:49:06;20.20;1.00
15452;DHT22;7827;53.594;9.938;2023-07-13T14:51:41;20.10;1.00
15452;DHT22;7827;53.594;9.938;2023-07-13T14:54:09;20.20;1.00
15452;DHT22;7827;53.594;9.938;2023-07-13T14:56:38;20.10;1.00
15452;DHT22;7827;53.594;9.938;2023-07-13T14:59:07;20.10;1.00
15452;DHT22;7827;53.594;9.938;2023-07-13T15:01:37;20.00;1.00
15452;DHT22;7827;53.594;9.938;2023-07-13T15:04:07;20.00;1.00
15452;DHT22;7827;53.594;9.938;2023-07-13T15:06:56;20.00;1.00
15452;DHT22;7827;53.594;9.938;2023-07-13T15:09:26;20.20;53.70
15452;DHT22;7827;53.594;9.938;2023-07-13T15:11:56;20.40;1.00
15452;DHT22;7827;53.594;9.938;2023-07-13T15:14:26;20.60;99.90
15452;DHT22;7827;53.594;9.938;2023-07-13T15:17:00;20.60;99.90
15452;DHT22;7827;53.594;9.938;2023-07-13T15:19:29;20.60;1.00
15452;DHT22;7827;53.594;9.938;2023-07-13T15:21:59;20.60;99.90
15452;DHT22;7827;53.594;9.938;2023-07-13T15:24:29;20.50;1.00
15452;DHT22;7827;53.594;9.938;2023-07-13T15:26:58;20.40;1.00
15452;DHT22;7827;53.594;9.938;2023-07-13T15:29:27;20.40;1.00
15452;DHT22;7827;53.594;9.938;2023-07-13T15:31:55;20.40;99.90
15452;DHT22;7827;53.594;9.938;2023-07-13T15:34:26;20.50;99.90
15452;DHT22;7827;53.594;9.938;2023-07-13T15:36:54;20.30;6.50
15452;DHT22;7827;53.594;9.938;2023-07-13T15:39:22;20.20;1.00
15452;DHT22;7827;53.594;9.938;2023-07-13T15:41:52;20.20;1.00
15452;DHT22;7827;53.594;9.938;2023-07-13T15:44:24;20.20;1.00
15452;DHT22;7827;53.594;9.938;2023-07-13T15:46:55;20.20;99.90
15452;DHT22;7827;53.594;9.938;2023-07-13T15:49:28;20.40;1.00
15452;DHT22;7827;53.594;9.938;2023-07-13T15:51:57;20.40;99.90
15452;DHT22;7827;53.594;9.938;2023-07-13T15:54:25;20.40;99.90
15452;DHT22;7827;53.594;9.938;2023-07-13T15:56:55;20.40;1.00
15452;DHT22;7827;53.594;9.938;2023-07-13T15:59:28;20.40;1.00
15452;DHT22;7827;53.594;9.938;2023-07-13T16:01:56;20.40;99.90
15452;DHT22;7827;53.594;9.938;2023-07-13T16:04:25;20.40;99.90
15452;DHT22;7827;53.594;9.938;2023-07-13T16:06:54;20.40;1.00
15452;DHT22;7827;53.594;9.938;2023-07-13T16:09:23;20.50;1.00
15452;DHT22;7827;53.594;9.938;2023-07-13T16:11:53;20.70;1.00
15452;DHT22;7827;53.594;9.938;2023-07-13T16:14:24;20.70;99.90
15452;DHT22;7827;53.594;9.938;2023-07-13T16:16:53;20.50;1.00
15452;DHT22;7827;53.594;9.938;2023-07-13T16:19:23;20.40;1.00
15452;DHT22;7827;53.594;9.938;2023-07-13T16:21:57;20.30;67.40
15452;DHT22;7827;53.594;9.938;2023-07-13T16:24:28;20.20;99.90